createdAt,value
2017-11-11T00:01:03.486Z,89.96
2017-11-11T00:03:29.610Z,90.24
2017-11-11T00:05:55.771Z,90.15
2017-11-11T00:08:21.980Z,90.12
2017-11-11T00:10:48.068Z,90.01
2017-11-11T00:13:14.293Z,90.17
2017-11-11T00:15:40.361Z,90.27
2017-11-11T00:18:06.454Z,90.03
2017-11-11T00:20:32.601Z,90.14
2017-11-11T00:22:58.642Z,89.59
2017-11-11T00:25:25.054Z,89.51
2017-11-11T00:27:51.152Z,89.51
2017-11-11T00:30:17.347Z,89.34
2017-11-11T00:32:43.535Z,89.32
2017-11-11T00:35:09.706Z,89.38
2017-11-11T00:37:35.778Z,89.04
2017-11-11T00:40:02.215Z,88.69
2017-11-11T00:42:28.316Z,88.22
2017-11-11T00:44:54.414Z,88.77
2017-11-11T00:47:20.561Z,89.00
2017-11-11T00:49:46.819Z,89.20
2017-11-11T00:52:13.048Z,88.87
2017-11-11T00:54:39.354Z,89.47
2017-11-11T00:57:05.669Z,89.50
2017-11-11T00:59:31.888Z,89.30
2017-11-11T01:01:58.071Z,89.42
2017-11-11T01:04:24.504Z,88.97
2017-11-11T01:06:50.537Z,88.28
2017-11-11T01:09:16.735Z,88.49
2017-11-11T01:11:42.921Z,88.29
2017-11-11T01:14:09.238Z,87.93
2017-11-11T01:16:35.751Z,87.45
2017-11-11T01:19:01.893Z,87.77
2017-11-11T01:21:28.081Z,87.86
2017-11-11T01:23:54.413Z,87.77
2017-11-11T01:26:20.644Z,87.59
2017-11-11T01:28:46.742Z,87.47
2017-11-11T01:31:12.802Z,87.90
2017-11-11T01:33:38.852Z,88.07
2017-11-11T01:36:04.953Z,88.27
2017-11-11T01:38:31.036Z,87.92
2017-11-11T01:40:57.377Z,87.43
2017-11-11T01:43:23.450Z,87.59
2017-11-11T01:45:49.648Z,87.58
2017-11-11T01:48:16.311Z,88.08
2017-11-11T01:50:42.385Z,88.22
2017-11-11T01:53:08.661Z,88.39
2017-11-11T01:55:35.161Z,88.63
2017-11-11T01:58:01.442Z,88.82
2017-11-11T02:00:27.638Z,88.50
2017-11-11T02:02:53.890Z,89.44
2017-11-11T02:05:20.066Z,89.26
2017-11-11T02:07:46.231Z,89.51
2017-11-11T02:10:12.580Z,89.83
2017-11-11T02:12:38.714Z,89.34
2017-11-11T02:15:04.888Z,89.84
2017-11-11T02:17:31.550Z,90.86
2017-11-11T02:19:57.893Z,90.50
2017-11-11T02:22:24.096Z,90.83
2017-11-11T02:24:50.536Z,90.65
2017-11-11T02:27:16.712Z,90.66
2017-11-11T02:29:42.834Z,91.21
2017-11-11T02:32:09.434Z,91.73
2017-11-11T02:34:35.556Z,91.84
2017-11-11T02:37:01.921Z,92.30
2017-11-11T02:39:28.007Z,92.77
2017-11-11T02:41:54.304Z,93.12
2017-11-11T02:44:20.365Z,92.39
2017-11-11T02:46:46.678Z,92.96
2017-11-11T02:49:12.839Z,92.65
2017-11-11T02:51:39.112Z,93.32
2017-11-11T02:54:05.267Z,93.84
2017-11-11T02:56:31.376Z,94.07
2017-11-11T02:58:57.631Z,94.55
2017-11-11T03:01:23.828Z,94.57
2017-11-11T03:03:50.017Z,93.89
2017-11-11T03:06:16.278Z,94.62
2017-11-11T03:08:42.481Z,94.68
2017-11-11T03:11:08.674Z,94.35
2017-11-11T03:13:34.867Z,94.28
2017-11-11T03:16:01.317Z,94.45
2017-11-11T03:18:27.652Z,94.49
2017-11-11T03:20:53.964Z,94.76
2017-11-11T03:23:20.173Z,94.91
2017-11-11T03:25:46.502Z,94.82
2017-11-11T03:28:12.811Z,95.27
2017-11-11T03:30:39.017Z,95.31
2017-11-11T03:33:05.066Z,95.73
2017-11-11T03:35:31.331Z,95.50
2017-11-11T03:37:57.608Z,95.52
2017-11-11T03:40:23.637Z,95.26
2017-11-11T03:42:49.703Z,95.39
2017-11-11T03:45:15.992Z,95.45
2017-11-11T03:47:42.085Z,95.48
2017-11-11T03:50:08.242Z,95.09
2017-11-11T03:52:34.558Z,94.90
2017-11-11T03:55:00.670Z,94.83
2017-11-11T03:57:26.849Z,94.75
2017-11-11T03:59:53.208Z,94.95
2017-11-11T04:02:19.399Z,94.89
2017-11-11T04:04:45.643Z,94.89
2017-11-11T04:07:11.766Z,94.66
2017-11-11T04:09:37.944Z,94.60
2017-11-11T04:12:04.158Z,94.56
2017-11-11T04:14:30.296Z,94.34
2017-11-11T04:16:56.523Z,93.90
2017-11-11T04:19:22.632Z,93.96
2017-11-11T04:21:48.851Z,93.79
2017-11-11T04:24:15.107Z,93.95
2017-11-11T04:26:41.365Z,93.55
2017-11-11T04:29:07.691Z,93.25
2017-11-11T04:31:33.881Z,93.14
2017-11-11T04:33:59.977Z,92.65
2017-11-11T04:36:26.924Z,92.58
2017-11-11T04:38:53.089Z,92.53
2017-11-11T04:41:19.150Z,92.34
2017-11-11T04:43:45.206Z,92.52
2017-11-11T04:46:11.277Z,92.48
2017-11-11T04:48:37.435Z,92.75
2017-11-11T04:51:03.510Z,92.57
2017-11-11T04:53:29.845Z,92.82
2017-11-11T04:55:56.184Z,92.55
2017-11-11T04:58:22.598Z,92.56
2017-11-11T05:00:48.888Z,92.46
2017-11-11T05:03:15.150Z,92.59
2017-11-11T05:05:41.398Z,92.49
2017-11-11T05:08:07.581Z,92.27
2017-11-11T05:10:33.890Z,91.83
2017-11-11T05:13:00.057Z,92.00
2017-11-11T05:15:26.384Z,91.59
2017-11-11T05:17:52.447Z,91.44
2017-11-11T05:20:18.556Z,90.87
2017-11-11T05:22:44.621Z,90.24
2017-11-11T05:25:10.767Z,90.32
2017-11-11T05:27:36.883Z,89.84
2017-11-11T05:30:03.067Z,90.05
2017-11-11T05:32:29.350Z,90.52
2017-11-11T05:34:55.629Z,90.52
2017-11-11T05:37:21.719Z,90.52
2017-11-11T05:39:47.815Z,90.63
2017-11-11T05:42:14.385Z,91.12
2017-11-11T05:44:40.499Z,91.27
2017-11-11T05:47:06.681Z,91.56
2017-11-11T05:49:32.721Z,91.62
2017-11-11T05:51:58.793Z,92.12
2017-11-11T05:54:25.025Z,92.67
2017-11-11T05:56:51.366Z,93.01
2017-11-11T05:59:17.445Z,93.31
2017-11-11T06:01:43.669Z,93.28
2017-11-11T06:04:09.969Z,93.27
2017-11-11T06:06:36.165Z,93.22
2017-11-11T06:09:02.313Z,93.40
2017-11-11T06:11:28.387Z,93.48
2017-11-11T06:13:54.891Z,93.50
2017-11-11T06:16:21.092Z,93.44
2017-11-11T06:18:47.194Z,93.26
2017-11-11T06:21:13.421Z,93.23
2017-11-11T06:23:39.601Z,93.49
2017-11-11T06:26:06.402Z,93.57
2017-11-11T06:28:32.516Z,94.02
2017-11-11T06:30:58.633Z,94.37
2017-11-11T06:39:51.787Z,94.97
2017-11-11T06:42:21.258Z,95.10
2017-11-11T06:44:47.444Z,95.42
2017-11-11T06:47:16.820Z,95.41
2017-11-11T06:49:49.503Z,95.33
2017-11-11T06:52:31.995Z,95.49
2017-11-11T06:55:10.718Z,95.72
2017-11-11T06:57:36.845Z,95.81
2017-11-11T07:00:03.106Z,95.93
2017-11-11T07:02:29.881Z,95.85
2017-11-11T07:04:56.389Z,95.91
2017-11-11T07:07:22.458Z,95.86
2017-11-11T07:09:49.101Z,95.42
2017-11-11T07:12:15.243Z,94.99
2017-11-11T07:14:41.390Z,94.72
2017-11-11T07:17:07.613Z,94.59
2017-11-11T07:19:34.092Z,94.91
2017-11-11T07:22:00.280Z,94.58
2017-11-11T07:24:26.350Z,94.22
2017-11-11T07:26:52.890Z,93.33
2017-11-11T07:29:18.964Z,92.59
2017-11-11T07:31:45.197Z,91.75
2017-11-11T07:34:11.674Z,91.11
2017-11-11T07:36:37.898Z,90.61
2017-11-11T07:39:04.285Z,90.13
2017-11-11T07:41:30.511Z,89.57
2017-11-11T07:43:56.756Z,89.70
2017-11-11T07:46:22.772Z,89.19
2017-11-11T07:48:49.105Z,90.02
2017-11-11T07:51:15.788Z,89.75
2017-11-11T07:53:42.010Z,88.16
2017-11-11T07:56:08.194Z,88.10
2017-11-11T07:58:34.445Z,88.34
2017-11-11T08:01:00.815Z,88.08
2017-11-11T08:03:27.333Z,87.96
2017-11-11T08:05:55.191Z,87.34
2017-11-11T08:08:21.586Z,87.23
2017-11-11T08:10:47.785Z,86.74
2017-11-11T08:13:13.986Z,86.44
2017-11-11T08:15:40.275Z,85.29
2017-11-11T08:18:06.529Z,84.52
2017-11-11T08:20:32.929Z,84.04
2017-11-11T08:22:59.001Z,83.68
2017-11-11T08:25:25.636Z,83.55
2017-11-11T08:27:51.737Z,82.53
2017-11-11T08:30:17.795Z,83.15
2017-11-11T08:32:44.151Z,82.48
2017-11-11T08:35:10.147Z,81.43
2017-11-11T08:37:37.440Z,82.20
2017-11-11T08:40:03.728Z,80.54
2017-11-11T08:42:29.888Z,79.51
2017-11-11T08:44:55.957Z,80.16
2017-11-11T08:47:22.195Z,78.86
2017-11-11T08:49:48.303Z,79.30
2017-11-11T08:52:14.435Z,78.48
2017-11-11T08:54:40.786Z,78.00
2017-11-11T08:57:07.046Z,75.95
2017-11-11T08:59:33.265Z,75.63
2017-11-11T09:01:59.578Z,76.28
2017-11-11T09:04:25.786Z,74.90
2017-11-11T09:06:52.022Z,75.24
2017-11-11T09:09:18.299Z,75.08
2017-11-11T09:11:44.393Z,74.94
2017-11-11T09:14:10.748Z,74.53
2017-11-11T09:16:36.903Z,72.95
2017-11-11T09:19:03.289Z,73.78
2017-11-11T09:21:29.522Z,72.41
2017-11-11T09:23:56.386Z,73.02
2017-11-11T09:26:23.847Z,70.58
2017-11-11T09:28:50.023Z,71.14
2017-11-11T09:31:16.450Z,71.49
2017-11-11T09:33:42.578Z,70.64
2017-11-11T09:36:08.892Z,71.06
2017-11-11T09:38:35.339Z,71.66
2017-11-11T09:41:01.361Z,72.21
2017-11-11T09:43:27.489Z,72.26
2017-11-11T09:45:53.802Z,72.48
2017-11-11T09:48:20.062Z,72.70
2017-11-11T09:50:46.181Z,73.15
2017-11-11T09:53:12.488Z,72.47
2017-11-11T09:55:38.643Z,74.17
2017-11-11T09:58:04.750Z,73.88
2017-11-11T10:00:31.508Z,74.47
2017-11-11T10:02:57.765Z,74.54
2017-11-11T10:05:23.840Z,74.03
2017-11-11T10:07:50.110Z,74.58
2017-11-11T10:10:16.138Z,74.04
2017-11-11T10:12:42.206Z,73.76
2017-11-11T10:15:08.417Z,75.96
2017-11-11T10:17:34.509Z,76.61
2017-11-11T10:20:00.631Z,77.48
2017-11-11T10:22:26.718Z,77.17
2017-11-11T10:24:52.767Z,77.73
2017-11-11T10:27:18.969Z,77.08
2017-11-11T10:29:46.216Z,77.14
2017-11-11T10:32:12.420Z,76.87
2017-11-11T10:34:38.598Z,78.03
2017-11-11T10:37:04.928Z,77.49
2017-11-11T10:39:31.099Z,79.21
2017-11-11T10:41:57.260Z,80.13
2017-11-11T10:44:23.597Z,81.14
2017-11-11T10:46:49.952Z,81.15
2017-11-11T10:49:16.447Z,81.11
2017-11-11T10:51:42.633Z,80.89
2017-11-11T10:54:08.725Z,81.29
2017-11-11T10:56:34.939Z,81.43
2017-11-11T10:59:01.118Z,80.49
2017-11-11T11:01:27.376Z,79.98
2017-11-11T11:03:53.486Z,79.66
2017-11-11T11:06:19.985Z,79.90
2017-11-11T11:08:46.021Z,79.95
2017-11-11T11:11:12.113Z,79.71
2017-11-11T11:13:38.324Z,80.51
2017-11-11T11:16:04.528Z,78.12
2017-11-11T11:18:30.688Z,79.62
2017-11-11T11:20:56.808Z,79.92
2017-11-11T11:23:23.019Z,80.77
2017-11-11T11:25:49.115Z,80.38
2017-11-11T11:28:15.294Z,79.71
2017-11-11T11:30:41.604Z,81.71
2017-11-11T11:33:07.697Z,82.53
2017-11-11T11:35:33.870Z,82.65
2017-11-11T11:38:00.235Z,83.88
2017-11-11T11:40:26.345Z,81.86
2017-11-11T11:42:52.616Z,82.65
2017-11-11T11:45:18.822Z,81.42
2017-11-11T11:47:44.938Z,82.99
2017-11-11T11:50:11.899Z,81.46
2017-11-11T11:52:38.017Z,83.03
2017-11-11T11:55:04.342Z,82.11
2017-11-11T11:57:30.618Z,83.07
2017-11-11T11:59:56.895Z,83.49
2017-11-11T12:02:23.072Z,83.12
2017-11-11T12:04:49.233Z,83.88
2017-11-11T12:07:15.369Z,85.16
2017-11-11T12:09:41.571Z,84.93
2017-11-11T12:12:07.819Z,84.64
2017-11-11T12:14:34.894Z,85.96
2017-11-11T12:17:01.179Z,84.17
2017-11-11T12:19:27.322Z,85.05
2017-11-11T12:21:53.392Z,84.99
2017-11-11T12:24:19.451Z,84.62
2017-11-11T12:26:46.012Z,84.55
2017-11-11T12:29:12.062Z,84.19
2017-11-11T12:31:38.204Z,84.52
2017-11-11T12:34:04.335Z,85.17
2017-11-11T12:36:30.441Z,84.59
2017-11-11T12:38:56.629Z,84.75
2017-11-11T12:41:23.183Z,85.54
2017-11-11T12:43:49.378Z,83.86
2017-11-11T12:46:16.748Z,84.38
2017-11-11T12:48:42.929Z,85.26
2017-11-11T12:51:09.185Z,86.05
2017-11-11T12:53:35.532Z,85.53
2017-11-11T12:56:01.656Z,86.67
2017-11-11T12:58:28.007Z,86.48
2017-11-11T13:00:54.314Z,86.52
2017-11-11T13:03:20.727Z,86.71
2017-11-11T13:05:46.884Z,86.80
2017-11-11T13:08:12.923Z,86.32
2017-11-11T13:10:39.425Z,86.14
2017-11-11T13:13:05.762Z,86.04
2017-11-11T13:15:31.958Z,86.30
2017-11-11T13:17:58.166Z,86.89
2017-11-11T13:20:24.344Z,88.23
2017-11-11T13:22:50.577Z,87.60
2017-11-11T13:25:16.713Z,86.52
2017-11-11T13:27:42.876Z,86.77
2017-11-11T13:30:09.155Z,86.53
2017-11-11T13:32:35.446Z,86.72
2017-11-11T13:35:01.707Z,87.60
2017-11-11T13:37:28.102Z,87.75
2017-11-11T13:39:54.251Z,88.03
2017-11-11T13:42:20.461Z,88.08
2017-11-11T13:44:46.697Z,88.12
2017-11-11T13:47:13.244Z,87.92
2017-11-11T13:49:39.451Z,87.88
2017-11-11T13:52:05.512Z,89.12
2017-11-11T13:54:31.688Z,89.18
2017-11-11T13:56:57.821Z,89.25
2017-11-11T13:59:24.023Z,89.61
2017-11-11T14:01:50.326Z,90.53
2017-11-11T14:04:17.909Z,90.65
2017-11-11T14:06:44.778Z,90.14
2017-11-11T14:09:10.994Z,90.47
2017-11-11T14:11:37.312Z,90.13
2017-11-11T14:14:03.595Z,90.70
2017-11-11T14:16:29.732Z,90.50
2017-11-11T14:18:55.963Z,90.03
2017-11-11T14:21:22.121Z,90.46
2017-11-11T14:23:48.552Z,90.75
2017-11-11T14:26:14.724Z,90.93
2017-11-11T14:28:41.842Z,91.07
2017-11-11T14:31:08.377Z,90.97
2017-11-11T14:33:34.549Z,91.25
2017-11-11T14:36:00.902Z,90.95
2017-11-11T14:38:27.236Z,90.34
2017-11-11T14:40:53.523Z,90.90
2017-11-11T14:43:19.858Z,90.87
2017-11-11T14:45:46.438Z,91.21
2017-11-11T14:48:12.645Z,91.14
2017-11-11T14:50:38.775Z,91.47
2017-11-11T14:53:04.936Z,91.36
2017-11-11T14:55:31.223Z,90.78
2017-11-11T14:57:57.484Z,90.22
2017-11-11T15:00:23.854Z,90.24
2017-11-11T15:02:49.960Z,91.06
2017-11-11T15:05:16.355Z,91.38
2017-11-11T15:07:42.525Z,91.23
2017-11-11T15:10:08.672Z,90.99
2017-11-11T15:12:34.857Z,91.33
2017-11-11T15:15:00.949Z,91.19
2017-11-11T15:17:27.277Z,91.56
2017-11-11T15:19:53.557Z,91.21
2017-11-11T15:22:19.770Z,91.47
2017-11-11T15:24:45.870Z,91.84
2017-11-11T15:27:12.167Z,92.00
2017-11-11T15:29:38.551Z,92.03
2017-11-11T15:32:04.853Z,92.16
2017-11-11T15:34:31.040Z,92.36
2017-11-11T15:36:57.191Z,91.97
2017-11-11T15:39:23.374Z,91.65
2017-11-11T15:41:49.649Z,92.02
2017-11-11T15:44:15.790Z,91.91
2017-11-11T15:46:41.999Z,92.06
2017-11-11T15:49:08.207Z,92.04
2017-11-11T15:51:34.385Z,92.51
2017-11-11T15:54:00.653Z,92.20
2017-11-11T15:56:26.945Z,91.71
2017-11-11T15:58:53.185Z,91.81
2017-11-11T16:01:19.340Z,91.61
2017-11-11T16:03:45.738Z,91.77
2017-11-11T16:06:12.250Z,91.80
2017-11-11T16:08:38.400Z,91.73
2017-11-11T16:11:04.560Z,91.61
2017-11-11T16:13:30.710Z,91.90
2017-11-11T16:15:56.893Z,91.67
2017-11-11T16:18:23.100Z,91.56
2017-11-11T16:20:50.997Z,91.65
2017-11-11T16:23:17.248Z,91.60
2017-11-11T16:25:44.268Z,91.68
2017-11-11T16:28:10.570Z,91.80
2017-11-11T16:30:36.885Z,91.59
2017-11-11T16:33:03.002Z,92.01
2017-11-11T16:35:29.435Z,91.89
2017-11-11T16:37:55.706Z,91.81
2017-11-11T16:40:22.578Z,91.28
2017-11-11T16:42:49.156Z,91.23
2017-11-11T16:45:15.397Z,91.37
2017-11-11T16:47:41.482Z,91.24
2017-11-11T16:50:08.002Z,91.50
2017-11-11T16:52:34.088Z,90.61
2017-11-11T16:55:00.355Z,91.00
2017-11-11T16:57:26.522Z,90.89
2017-11-11T16:59:52.646Z,91.00
2017-11-11T17:02:18.906Z,91.06
2017-11-11T17:04:45.179Z,91.20
2017-11-11T17:07:11.436Z,91.26
2017-11-11T17:09:37.884Z,90.74
2017-11-11T17:12:04.184Z,91.21
2017-11-11T17:14:30.267Z,91.68
2017-11-11T17:16:56.336Z,91.27
2017-11-11T17:19:22.567Z,91.87
2017-11-11T17:21:48.639Z,92.18
2017-11-11T17:24:14.870Z,92.15
2017-11-11T17:26:41.062Z,91.84
2017-11-11T17:29:07.150Z,91.62
2017-11-11T17:31:33.942Z,91.69
2017-11-11T17:34:00.315Z,92.34
2017-11-11T17:36:28.615Z,91.95
2017-11-11T17:38:54.709Z,92.77
2017-11-11T17:41:22.228Z,92.33
2017-11-11T17:43:48.456Z,92.70
2017-11-11T17:46:14.601Z,92.44
2017-11-11T17:48:40.745Z,92.17
2017-11-11T17:51:06.855Z,92.47
2017-11-11T17:53:33.072Z,92.14
2017-11-11T17:55:59.403Z,91.78
2017-11-11T17:58:25.567Z,91.72
2017-11-11T18:00:51.990Z,91.38
2017-11-11T18:03:19.255Z,91.38
2017-11-11T18:05:45.448Z,91.54
2017-11-11T18:08:11.552Z,91.71
2017-11-11T18:10:37.826Z,91.88
2017-11-11T18:13:04.179Z,91.95
2017-11-11T18:15:30.342Z,91.56
2017-11-11T18:17:56.410Z,91.50
2017-11-11T18:20:22.575Z,91.04
2017-11-11T18:22:48.701Z,91.42
2017-11-11T18:25:14.990Z,91.02
2017-11-11T18:27:41.129Z,91.53
2017-11-11T18:30:07.325Z,91.50
2017-11-11T18:32:33.442Z,91.07
2017-11-11T18:34:59.473Z,90.76
2017-11-11T18:37:25.784Z,90.59
2017-11-11T18:39:51.920Z,90.74
2017-11-11T18:42:18.137Z,91.29
2017-11-11T18:44:45.397Z,91.68
2017-11-11T18:47:11.539Z,91.82
2017-11-11T18:49:37.700Z,91.92
2017-11-11T18:52:03.986Z,91.54
2017-11-11T18:54:30.403Z,91.33
2017-11-11T18:57:02.731Z,91.63
2017-11-11T18:59:28.939Z,91.58
2017-11-11T19:01:55.179Z,91.78
2017-11-11T19:04:21.331Z,91.49
2017-11-11T19:06:47.389Z,91.84
2017-11-11T19:09:13.851Z,91.95
2017-11-11T19:11:41.022Z,92.30
2017-11-11T19:14:07.272Z,92.33
2017-11-11T19:16:33.679Z,92.11
2017-11-11T19:18:59.838Z,92.15
2017-11-11T19:21:26.359Z,91.97
2017-11-11T19:23:52.693Z,92.33
2017-11-11T19:26:19.534Z,91.74
2017-11-11T19:28:45.760Z,92.24
2017-11-11T19:31:12.322Z,91.74
2017-11-11T19:33:38.726Z,92.30
2017-11-11T19:36:04.912Z,92.35
2017-11-11T19:38:31.274Z,91.78
2017-11-11T19:40:57.515Z,92.32
2017-11-11T19:43:23.618Z,92.43
2017-11-11T19:45:49.908Z,92.75
2017-11-11T19:48:16.110Z,92.82
2017-11-11T19:50:42.412Z,92.97
2017-11-11T19:53:08.662Z,92.93
2017-11-11T19:55:34.837Z,92.81
2017-11-11T19:58:01.450Z,93.03
2017-11-11T20:00:27.761Z,92.79
2017-11-11T20:02:53.967Z,92.63
2017-11-11T20:05:20.116Z,93.18
2017-11-11T20:07:46.773Z,93.24
2017-11-11T20:10:12.941Z,92.90
2017-11-11T20:12:39.055Z,93.15
2017-11-11T20:15:05.733Z,93.52
2017-11-11T20:17:31.951Z,93.54
2017-11-11T20:19:58.020Z,93.91
2017-11-11T20:22:24.678Z,93.39
2017-11-11T20:24:51.153Z,93.71
2017-11-11T20:27:17.513Z,93.96
2017-11-11T20:29:43.782Z,93.94
2017-11-11T20:32:10.124Z,93.87
2017-11-11T20:34:36.304Z,94.19
2017-11-11T20:37:02.489Z,94.51
2017-11-11T20:39:28.733Z,94.63
2017-11-11T20:41:55.008Z,94.07
2017-11-11T20:44:21.309Z,94.40
2017-11-11T20:46:47.635Z,94.39
2017-11-11T20:49:13.861Z,94.40
2017-11-11T20:51:40.210Z,94.91
2017-11-11T20:54:06.647Z,95.10
2017-11-11T20:56:32.819Z,95.06
2017-11-11T20:58:59.396Z,94.98
2017-11-11T21:01:25.665Z,94.58
2017-11-11T21:03:51.781Z,94.82
2017-11-11T21:06:18.502Z,94.58
2017-11-11T21:08:44.604Z,94.59
2017-11-11T21:11:10.676Z,94.60
2017-11-11T21:13:37.260Z,94.80
2017-11-11T21:16:03.495Z,94.77
2017-11-11T21:18:30.541Z,94.62
2017-11-11T21:20:56.951Z,94.42
2017-11-11T21:23:23.166Z,94.53
2017-11-11T21:25:49.346Z,94.50
2017-11-11T21:28:15.592Z,94.36
2017-11-11T21:30:41.831Z,94.19
2017-11-11T21:33:08.090Z,94.41
2017-11-11T21:35:34.185Z,93.90
2017-11-11T21:38:00.255Z,93.90
2017-11-11T21:40:26.490Z,94.30
2017-11-11T21:42:52.966Z,94.34
2017-11-11T21:45:19.083Z,94.64
2017-11-11T21:47:45.157Z,94.31
2017-11-11T21:50:11.233Z,94.68
2017-11-11T21:52:38.262Z,94.63
2017-11-11T21:55:04.406Z,94.39
2017-11-11T21:57:30.587Z,94.61
2017-11-11T21:59:56.795Z,94.83
2017-11-11T22:02:23.986Z,94.25
2017-11-11T22:04:50.135Z,94.56
2017-11-11T22:07:16.257Z,94.46
2017-11-11T22:09:42.320Z,94.23
2017-11-11T22:12:09.202Z,94.47
2017-11-11T22:14:35.271Z,94.43
2017-11-11T22:17:01.472Z,94.23
2017-11-11T22:19:27.546Z,94.30
2017-11-11T22:21:53.657Z,94.31
2017-11-11T22:24:19.706Z,94.47
2017-11-11T22:26:45.974Z,94.56
2017-11-11T22:29:12.082Z,94.43
2017-11-11T22:31:38.223Z,94.24
2017-11-11T22:34:04.286Z,94.59
2017-11-11T22:36:30.509Z,94.42
2017-11-11T22:38:56.545Z,94.68
2017-11-11T22:41:22.766Z,94.69
2017-11-11T22:43:48.922Z,94.68
2017-11-11T22:46:15.004Z,94.70
2017-11-11T22:48:41.112Z,94.58
2017-11-11T22:51:07.299Z,94.42
2017-11-11T22:53:33.424Z,94.44
2017-11-11T22:55:59.639Z,94.56
2017-11-11T22:58:25.771Z,94.40
2017-11-11T23:00:51.966Z,94.26
2017-11-11T23:03:18.291Z,94.34
2017-11-11T23:05:44.413Z,94.21
2017-11-11T23:08:10.506Z,94.49
2017-11-11T23:10:36.580Z,94.61
2017-11-11T23:13:02.650Z,94.46
2017-11-11T23:15:28.781Z,94.31
2017-11-11T23:17:54.871Z,94.58
2017-11-11T23:20:20.952Z,94.61
2017-11-11T23:22:47.050Z,94.96
2017-11-11T23:25:13.579Z,95.01
2017-11-11T23:27:39.656Z,94.74
2017-11-11T23:30:05.864Z,94.67
2017-11-11T23:32:32.015Z,94.74
2017-11-11T23:34:58.337Z,94.84
2017-11-11T23:37:24.406Z,94.48
2017-11-11T23:39:50.594Z,93.82
2017-11-11T23:42:16.656Z,94.55
2017-11-11T23:44:42.733Z,94.67
2017-11-11T23:47:09.023Z,95.01
2017-11-11T23:49:35.144Z,95.29
2017-11-11T23:52:01.342Z,95.45
2017-11-11T23:54:27.430Z,95.31
2017-11-11T23:56:53.524Z,95.18
2017-11-11T23:59:19.661Z,94.93
